Time;durP1;ratioP1;P1;durP2;ratioP2;P2;SDS_P1;SDS_P2;PMS_P1;PMS_P2;Temp;Humidity;BMP_temperature;BMP_pressure;BME280_temperature;BME280_humidity;BME280_pressure;Samples;Min_cycle;Max_cycle;Signal;HPM_P1;HPM_P2
2022/09/07 00:01:46;;;;;;;9.38;2.50;;;;;;;18.03;65.23;100996.00;5070036;28;20029;-69
2022/09/07 00:04:12;;;;;;;8.10;2.65;;;;;;;18.09;65.30;100991.75;5070045;28;20387;-66
2022/09/07 00:06:38;;;;;;;9.68;2.60;;;;;;;18.01;66.84;100985.53;5068847;28;20032;-66
2022/09/07 00:09:03;;;;;;;11.23;2.88;;;;;;;17.86;67.27;100944.38;5069482;28;20418;-69
2022/09/07 00:11:29;;;;;;;7.53;2.53;;;;;;;18.19;67.10;100978.81;5070165;28;20385;-72
2022/09/07 00:13:55;;;;;;;11.75;2.75;;;;;;;18.18;68.45;100977.06;5070182;28;20031;-69
2022/09/07 00:16:31;;;;;;;11.30;2.83;;;;;;;18.18;69.04;100977.06;5068755;28;20060;-68
2022/09/07 00:18:59;;;;;;;8.35;2.70;;;;;;;17.72;69.94;100961.53;5067534;28;20107;-69
2022/09/07 00:21:25;;;;;;;6.90;2.70;;;;;;;17.65;69.33;100955.34;5069159;28;20081;-64
2022/09/07 00:23:51;;;;;;;9.35;2.38;;;;;;;17.85;67.83;100980.91;5067524;28;20107;-68
2022/09/07 00:26:26;;;;;;;8.73;2.58;;;;;;;17.90;67.72;100974.88;5064771;28;20040;-68
2022/09/07 00:28:55;;;;;;;9.38;2.80;;;;;;;17.85;68.09;100984.38;5067789;28;20056;-70
2022/09/07 00:31:22;;;;;;;9.15;2.92;;;;;;;17.83;67.16;100978.28;5068603;28;20025;-67
2022/09/07 00:33:49;;;;;;;8.35;2.97;;;;;;;17.61;67.41;100970.09;5066688;28;20081;-72
2022/09/07 00:36:15;;;;;;;7.07;3.03;;;;;;;17.50;69.04;100979.50;5069918;28;20031;-70
2022/09/07 00:38:41;;;;;;;11.13;2.85;;;;;;;17.53;69.89;100986.50;5069429;28;20025;-69
2022/09/07 00:41:07;;;;;;;11.25;3.40;;;;;;;17.56;70.95;100981.34;5069413;28;20031;-68
2022/09/07 00:43:34;;;;;;;7.10;3.20;;;;;;;17.53;71.75;100976.91;5073216;28;20510;-69
2022/09/07 00:46:01;;;;;;;11.63;3.40;;;;;;;17.51;72.54;100988.19;5073670;28;20020;-66
2022/09/07 00:48:35;;;;;;;6.68;3.65;;;;;;;17.43;73.05;100988.06;5073653;28;20040;-65
2022/09/07 00:51:05;;;;;;;10.88;3.40;;;;;;;17.34;73.69;100986.19;5038120;28;20166;-66
2022/09/07 00:53:40;;;;;;;10.57;3.10;;;;;;;17.27;74.34;100977.38;5073174;28;20490;-67
2022/09/07 00:56:08;;;;;;;13.43;3.78;;;;;;;17.41;74.61;100984.56;5073622;28;20051;-71
2022/09/07 00:58:37;;;;;;;8.93;3.45;;;;;;;17.45;73.47;100974.19;5073279;28;20041;-69
2022/09/07 01:01:02;;;;;;;7.97;3.13;;;;;;;17.42;72.53;100963.72;5073267;28;20024;-69
2022/09/07 01:03:32;;;;;;;12.02;3.22;;;;;;;17.19;71.41;100932.00;5073294;28;20166;-72
2022/09/07 01:06:01;;;;;;;;;;;;;;;17.32;70.74;100967.03;5073404;28;20107;-69
2022/09/07 01:08:27;;;;;;;8.18;2.47;;;;;;;17.07;71.16;100965.69;5072717;28;19947;-72
2022/09/07 01:10:54;;;;;;;8.55;2.78;;;;;;;16.82;70.53;100959.97;5073400;28;20110;-66
2022/09/07 01:13:19;;;;;;;4.85;2.70;;;;;;;16.55;71.34;100924.72;5073240;28;20105;-71
2022/09/07 01:15:57;;;;;;;8.32;2.95;;;;;;;16.57;71.38;100969.91;5072780;28;20112;-70
2022/09/07 01:18:41;;;;;;;6.38;2.53;;;;;;;16.48;71.06;100964.53;5072880;28;20111;-68
2022/09/07 01:21:16;;;;;;;7.60;2.67;;;;;;;16.33;71.24;100952.06;5073170;28;20028;-65
2022/09/07 01:24:15;;;;;;;9.55;3.00;;;;;;;16.41;71.38;100968.75;5053816;28;20572;-66
2022/09/07 01:27:12;;;;;;;8.00;2.63;;;;;;;16.06;71.14;100906.31;5072608;28;20127;-68
2022/09/07 01:30:05;;;;;;;6.22;2.60;;;;;;;16.46;70.79;100974.03;5072546;28;20025;-67
2022/09/07 01:32:33;;;;;;;10.02;2.97;;;;;;;16.36;71.38;100964.28;5072799;28;20036;-70
2022/09/07 01:35:02;;;;;;;7.03;2.83;;;;;;;16.07;72.68;100972.34;5072444;28;20031;-69
2022/09/07 01:37:53;;;;;;;11.70;2.97;;;;;;;16.05;72.83;100971.41;5072763;28;20086;-69
2022/09/07 01:40:39;;;;;;;10.73;3.42;;;;;;;15.96;72.71;100959.06;5072581;28;20028;-66
2022/09/07 01:43:17;;;;;;;6.00;3.00;;;;;;;15.74;72.62;100952.44;5072380;28;20038;-69
2022/09/07 01:45:44;;;;;;;7.22;2.72;;;;;;;15.88;73.27;100974.50;5072148;28;20021;-69
2022/09/07 01:48:15;;;;;;;8.73;2.95;;;;;;;15.90;73.41;100978.03;5072715;28;20039;-68
2022/09/07 01:50:55;;;;;;;5.95;2.70;;;;;;;15.82;73.64;100966.56;5072552;28;20070;-68
2022/09/07 01:53:42;;;;;;;5.65;2.75;;;;;;;15.48;74.82;100976.13;5071478;28;20036;-68
2022/09/07 01:56:17;;;;;;;7.55;3.00;;;;;;;15.23;75.79;100951.19;5069532;28;20029;-68
2022/09/07 01:58:53;;;;;;;6.88;2.67;;;;;;;15.49;75.66;100977.91;5072090;28;20051;-68
2022/09/07 02:01:26;;;;;;;4.40;2.38;;;;;;;15.39;76.01;100978.47;5072260;28;20032;-68
2022/09/07 02:04:24;;;;;;;6.72;2.78;;;;;;;15.44;76.19;100977.78;5071654;28;20495;-71
2022/09/07 02:06:54;;;;;;;4.95;2.78;;;;;;;15.35;76.55;100967.13;5009555;28;20084;-65
2022/09/07 02:09:50;;;;;;;5.38;2.65;;;;;;;15.46;76.21;100970.00;5009830;28;20520;-67
2022/09/07 02:12:24;;;;;;;7.25;2.67;;;;;;;15.34;77.27;100962.78;5009799;28;20153;-68
2022/09/07 02:14:57;;;;;;;8.15;2.70;;;;;;;15.22;78.43;100963.34;5009497;28;20034;-68
2022/09/07 02:17:48;;;;;;;10.45;3.15;;;;;;;15.29;79.11;100965.25;5009484;28;20645;-66
2022/09/07 02:20:22;;;;;;;8.60;3.22;;;;;;;15.37;79.32;100973.25;5009727;28;20033;-68
2022/09/07 02:22:52;;;;;;;6.63;2.95;;;;;;;15.34;79.50;100961.06;5009301;28;20036;-66
2022/09/07 02:25:24;;;;;;;6.38;2.83;;;;;;;15.35;79.43;100943.72;5009234;28;20045;-68
2022/09/07 02:27:58;;;;;;;8.55;2.83;;;;;;;15.62;79.08;100937.44;4993186;28;20029;-69
2022/09/07 02:30:24;;;;;;;7.53;3.10;;;;;;;15.88;77.96;100943.28;5009446;28;20046;-69
2022/09/07 02:32:50;;;;;;;7.95;3.03;;;;;;;16.24;77.26;100959.69;4992848;28;20037;-67
2022/09/07 02:35:16;;;;;;;6.80;3.10;;;;;;;16.24;76.36;100931.03;5009320;28;20467;-70
2022/09/07 02:37:44;;;;;;;13.82;3.30;;;;;;;16.40;73.98;100953.06;5009306;28;20040;-68
2022/09/07 02:40:10;;;;;;;11.85;3.78;;;;;;;16.58;72.97;100965.59;5009081;28;20448;-67
2022/09/07 02:42:37;;;;;;;9.43;3.22;;;;;;;16.71;71.86;100953.69;5014070;28;20032;-69
2022/09/07 02:45:07;;;;;;;8.57;2.88;;;;;;;16.82;71.90;100950.44;5067580;28;20039;-65
2022/09/07 02:47:44;;;;;;;11.85;3.28;;;;;;;16.77;71.74;100957.31;5071411;28;20069;-69
2022/09/07 02:50:31;;;;;;;8.98;3.20;;;;;;;16.72;72.94;100951.09;5071127;28;20036;-69
2022/09/07 02:53:37;;;;;;;7.65;3.00;;;;;;;16.61;73.43;100958.72;5071088;28;20040;-68
2022/09/07 02:56:40;;;;;;;6.95;3.05;;;;;;;16.58;73.79;100957.78;5071065;28;20052;-69
2022/09/07 02:59:05;;;;;;;7.25;2.70;;;;;;;16.49;74.15;100961.09;5070926;28;20447;-69
2022/09/07 03:01:47;;;;;;;6.68;2.88;;;;;;;16.25;74.18;100925.84;5069972;28;20070;-72
2022/09/07 03:04:31;;;;;;;6.43;2.70;;;;;;;16.28;75.03;100949.34;5070961;28;20103;-70
2022/09/07 03:07:15;;;;;;;3.70;2.53;;;;;;;16.24;75.04;100944.94;5069755;28;20033;-69
2022/09/07 03:09:45;;;;;;;4.07;2.67;;;;;;;16.18;75.00;100945.66;5070889;28;20063;-66
2022/09/07 03:12:11;;;;;;;7.55;3.28;;;;;;;15.87;75.45;100910.25;5070676;28;20033;-68
2022/09/07 03:14:40;;;;;;;6.88;3.00;;;;;;;16.04;75.49;100951.41;5070624;28;20061;-73
2022/09/07 03:17:06;;;;;;;10.10;3.65;;;;;;;15.99;75.66;100954.81;5070672;28;20029;-72
2022/09/07 03:19:31;;;;;;;7.70;3.22;;;;;;;15.92;75.54;100944.22;5064630;28;20032;-69
2022/09/07 03:21:57;;;;;;;7.88;3.20;;;;;;;15.83;76.00;100953.56;5062279;28;20029;-65
2022/09/07 03:24:22;;;;;;;6.90;3.28;;;;;;;15.67;76.58;100948.81;5084005;28;20085;-69
2022/09/07 03:26:50;;;;;;;6.97;3.17;;;;;;;15.49;77.27;100936.28;5035333;28;20087;-69
2022/09/07 03:29:15;;;;;;;6.95;3.10;;;;;;;15.52;77.89;100955.41;5070548;28;20024;-72
2022/09/07 03:31:41;;;;;;;7.40;3.40;;;;;;;15.56;77.70;100964.16;5070384;28;20074;-70
2022/09/07 03:34:06;;;;;;;7.03;3.30;;;;;;;15.31;78.39;100949.69;5070383;28;20027;-70
2022/09/07 03:36:33;;;;;;;7.63;3.38;;;;;;;15.34;78.81;100962.78;5070251;28;20119;-66
2022/09/07 03:38:58;;;;;;;5.90;3.80;;;;;;;15.25;78.69;100940.00;5070132;28;20103;-68
2022/09/07 03:41:26;;;;;;;6.32;3.25;;;;;;;15.58;78.49;100962.50;5070526;28;20107;-69
2022/09/07 03:43:51;;;;;;;8.15;3.35;;;;;;;15.58;76.87;100966.84;5070249;28;20075;-69
2022/09/07 03:46:18;;;;;;;11.70;3.50;;;;;;;15.70;76.15;100969.72;5070240;28;20036;-71
2022/09/07 03:48:45;;;;;;;7.93;2.70;;;;;;;15.73;76.62;100969.78;5052099;28;20021;-69
2022/09/07 03:51:12;;;;;;;16.27;3.65;;;;;;;15.72;75.51;100972.38;5070333;28;20086;-67
2022/09/07 03:53:41;;;;;;;10.98;2.92;;;;;;;15.69;76.02;100963.63;5070113;28;20045;-69
2022/09/07 03:56:20;;;;;;;10.98;3.78;;;;;;;15.60;76.51;100960.81;5070125;28;20100;-66
2022/09/07 03:58:47;;;;;;;8.57;3.47;;;;;;;15.07;77.62;100937.81;5070014;28;20391;-69
2022/09/07 04:01:16;;;;;;;9.68;3.08;;;;;;;15.05;79.09;100978.47;5069927;28;20116;-69
2022/09/07 04:03:43;;;;;;;5.33;3.23;;;;;;;15.07;79.81;100984.63;5052577;28;20032;-66
2022/09/07 04:06:09;;;;;;;14.32;4.20;;;;;;;15.07;79.51;100986.34;5050911;28;20258;-69
2022/09/07 04:08:36;;;;;;;13.25;4.82;;;;;;;15.18;79.67;100992.72;5069907;28;20102;-69
2022/09/07 04:11:04;;;;;;;14.07;4.30;;;;;;;15.33;79.58;100998.31;5070288;28;20028;-65
2022/09/07 04:13:32;;;;;;;9.07;4.00;;;;;;;15.44;79.17;100988.19;5069811;28;20033;-67
2022/09/07 04:15:58;;;;;;;12.27;3.95;;;;;;;15.30;79.13;100972.22;5069913;28;20402;-69
2022/09/07 04:18:23;;;;;;;9.77;3.42;;;;;;;15.07;81.51;101004.56;5073183;28;20038;-69
2022/09/07 04:20:49;;;;;;;8.57;4.00;;;;;;;14.86;83.05;101006.56;5074036;28;20127;-68
2022/09/07 04:23:18;;;;;;;10.95;3.55;;;;;;;14.80;83.85;101015.94;5082223;28;20024;-66
2022/09/07 04:25:49;;;;;;;10.40;3.70;;;;;;;14.79;84.38;101019.38;5083243;28;20039;-67
2022/09/07 04:28:16;;;;;;;10.38;3.72;;;;;;;14.60;83.86;100987.63;5073431;28;20099;-68
2022/09/07 04:30:42;;;;;;;8.98;3.30;;;;;;;14.63;83.95;100982.53;5073869;28;20024;-71
2022/09/07 04:33:08;;;;;;;8.48;3.40;;;;;;;14.90;83.93;101030.06;5073827;28;20406;-68
2022/09/07 04:36:00;;;;;;;11.30;3.50;;;;;;;14.91;84.07;101024.03;5021646;28;20068;-72
2022/09/07 04:38:27;;;;;;;7.80;3.50;;;;;;;15.00;83.74;101017.38;5011334;28;20065;-67
2022/09/07 04:41:08;;;;;;;6.35;3.17;;;;;;;15.06;84.04;101016.66;5010927;28;20056;-67
2022/09/07 04:43:34;;;;;;;11.02;4.03;;;;;;;15.16;82.60;101020.41;5011242;28;20546;-69
2022/09/07 04:46:10;;;;;;;12.90;4.57;;;;;;;15.06;81.51;100985.44;5011322;28;20040;-70
2022/09/07 04:48:36;;;;;;;10.77;3.90;;;;;;;15.26;81.30;100998.13;5011126;28;20036;-69
2022/09/07 04:51:06;;;;;;;10.57;3.90;;;;;;;15.28;81.50;100996.44;5011267;28;20149;-69
2022/09/07 04:53:33;;;;;;;13.15;3.97;;;;;;;15.18;82.35;100995.31;5011272;28;20034;-66
2022/09/07 04:55:58;;;;;;;10.75;4.68;;;;;;;15.46;82.99;101024.66;4994815;28;20026;-70
2022/09/07 04:58:24;;;;;;;10.15;3.67;;;;;;;15.53;83.12;101030.03;5010998;28;20040;-69
2022/09/07 05:00:49;;;;;;;9.63;3.75;;;;;;;15.55;83.45;101024.88;5010922;28;20034;-69
2022/09/07 05:03:15;;;;;;;11.23;4.20;;;;;;;15.35;84.24;100999.22;5011037;28;20034;-69
2022/09/07 05:05:40;;;;;;;9.32;3.30;;;;;;;15.39;85.79;101020.13;4977847;28;20121;-68
2022/09/07 05:08:05;;;;;;;13.85;4.18;;;;;;;15.35;86.51;101032.16;5010735;28;20119;-70
2022/09/07 05:10:31;;;;;;;10.85;3.63;;;;;;;15.37;86.15;101031.34;5053137;28;20043;-68
2022/09/07 05:12:57;;;;;;;10.52;3.97;;;;;;;15.51;86.20;101039.53;5073050;28;20097;-66
2022/09/07 05:15:22;;;;;;;8.50;4.05;;;;;;;15.65;85.09;101037.28;5072977;28;20030;-69
2022/09/07 05:17:49;;;;;;;9.80;4.10;;;;;;;15.67;85.12;101021.69;5071783;28;20482;-67
2022/09/07 05:20:15;;;;;;;10.05;4.30;;;;;;;15.80;84.58;101036.78;5054096;28;20048;-69
2022/09/07 05:22:40;;;;;;;17.83;4.38;;;;;;;16.05;83.32;101045.22;5054258;28;20470;-69
2022/09/07 05:25:07;;;;;;;10.88;4.13;;;;;;;16.21;82.28;101042.97;5092330;28;20020;-69
2022/09/07 05:27:33;;;;;;;12.70;3.70;;;;;;;16.32;82.45;101050.22;5092453;28;20020;-69
2022/09/07 05:29:58;;;;;;;12.25;4.75;;;;;;;16.32;83.03;101052.81;5073464;28;20035;-69
2022/09/07 05:32:24;;;;;;;11.40;4.40;;;;;;;16.21;83.77;101049.06;5092397;28;20111;-69
2022/09/07 05:34:49;;;;;;;11.10;5.05;;;;;;;16.15;84.38;101054.16;5091994;28;20040;-69
2022/09/07 05:37:15;;;;;;;9.48;4.53;;;;;;;16.11;84.58;101047.09;5092331;28;20149;-69
2022/09/07 05:39:41;;;;;;;9.23;4.85;;;;;;;15.95;85.41;101015.47;5092542;28;20493;-68
2022/09/07 05:42:06;;;;;;;5.47;3.90;;;;;;;16.14;86.29;101055.84;5092285;28;20035;-69
2022/09/07 05:44:32;;;;;;;8.57;3.35;;;;;;;16.17;87.38;101055.03;5092603;28;20016;-68
2022/09/07 05:46:57;;;;;;;7.57;3.58;;;;;;;16.29;86.95;101052.72;5037016;28;20040;-69
2022/09/07 05:49:23;;;;;;;7.43;3.38;;;;;;;16.41;86.04;101059.94;5072344;28;20486;-69
2022/09/07 05:51:48;;;;;;;9.02;3.47;;;;;;;16.36;86.12;101025.06;5072079;28;20422;-70
2022/09/07 05:54:14;;;;;;;9.50;3.55;;;;;;;16.55;87.20;101047.22;5072292;28;20390;-73
2022/09/07 05:56:39;;;;;;;7.18;3.25;;;;;;;16.73;86.72;101053.66;5071621;28;20484;-74
2022/09/07 05:59:05;;;;;;;8.27;3.78;;;;;;;16.88;87.26;101043.53;5071517;28;20533;-68
2022/09/07 06:01:31;;;;;;;8.13;3.30;;;;;;;17.01;85.45;101049.03;5071302;28;20021;-70
2022/09/07 06:03:56;;;;;;;7.38;3.58;;;;;;;17.02;84.79;101051.69;5070197;28;20108;-71
2022/09/07 06:06:22;;;;;;;6.57;3.55;;;;;;;16.85;84.84;101019.13;5035472;28;20151;-72
2022/09/07 06:08:52;;;;;;;6.88;3.13;;;;;;;17.10;84.80;101044.03;5071923;28;20526;-70
2022/09/07 06:11:23;;;;;;;7.93;4.03;;;;;;;17.33;86.13;101047.03;5071836;28;20116;-68
2022/09/07 06:13:50;;;;;;;5.68;3.53;;;;;;;17.42;82.94;101038.50;5036040;28;20036;-70
2022/09/07 06:16:17;;;;;;;4.93;3.03;;;;;;;17.38;81.99;101045.41;5071915;28;20025;-68
2022/09/07 06:18:47;;;;;;;7.35;3.70;;;;;;;17.44;82.52;101035.06;5071475;28;20032;-67
2022/09/07 06:21:16;;;;;;;6.63;3.47;;;;;;;17.62;81.89;101036.28;5071564;28;20034;-70
2022/09/07 06:23:44;;;;;;;5.70;3.05;;;;;;;17.65;81.00;101043.28;5079547;28;20012;-68
2022/09/07 06:26:10;;;;;;;7.20;4.60;;;;;;;17.69;79.72;101043.31;5077189;28;20029;-70
2022/09/07 06:28:38;;;;;;;13.23;6.00;;;;;;;17.62;80.19;101044.97;5072168;28;20022;-69
2022/09/07 06:31:08;;;;;;;12.85;7.32;;;;;;;17.67;80.59;101047.66;5071386;28;20094;-70
2022/09/07 06:33:35;;;;;;;11.07;5.65;;;;;;;17.72;79.82;101055.56;5071465;28;20448;-68
2022/09/07 06:36:06;;;;;;;7.72;4.65;;;;;;;17.70;79.91;101057.28;5071488;28;20052;-70
2022/09/07 06:38:35;;;;;;;6.97;4.38;;;;;;;17.85;79.26;101057.53;5053248;28;20076;-67
2022/09/07 06:41:03;;;;;;;7.87;4.67;;;;;;;18.18;77.86;101056.34;5070939;28;20029;-70
2022/09/07 06:43:29;;;;;;;6.95;3.53;;;;;;;18.51;77.92;101054.19;5071301;28;20025;-71
2022/09/07 06:45:54;;;;;;;9.23;3.60;;;;;;;18.59;75.96;101021.16;5070960;28;20521;-71
2022/09/07 06:48:20;;;;;;;7.82;4.20;;;;;;;18.91;76.48;101046.88;5071209;28;20103;-71
2022/09/07 06:51:00;;;;;;;8.50;3.80;;;;;;;19.20;75.22;101041.09;5071288;28;20457;-70
2022/09/07 06:53:28;;;;;;;7.72;3.22;;;;;;;19.45;72.41;101049.19;5071079;28;20031;-68
2022/09/07 06:55:54;;;;;;;8.48;3.50;;;;;;;19.43;72.16;101043.94;5070947;28;20553;-70
2022/09/07 06:58:21;;;;;;;6.63;3.42;;;;;;;19.26;73.41;101043.78;5070617;28;20115;-70
2022/09/07 07:00:47;;;;;;;6.22;3.30;;;;;;;19.20;73.08;101021.03;5070772;28;20043;-74
2022/09/07 07:03:14;;;;;;;5.90;3.08;;;;;;;19.55;71.99;101046.69;5070572;28;20037;-70
2022/09/07 07:05:39;;;;;;;7.97;3.33;;;;;;;19.47;72.42;101039.63;5070924;28;20032;-68
2022/09/07 07:08:06;;;;;;;6.97;3.60;;;;;;;19.52;74.37;101033.53;5071050;28;20419;-69
2022/09/07 07:10:35;;;;;;;4.82;2.83;;;;;;;19.51;73.00;101039.63;5070525;28;20071;-69
2022/09/07 07:13:01;;;;;;;6.93;2.70;;;;;;;19.31;73.01;101034.22;5070620;28;20024;-72
2022/09/07 07:15:29;;;;;;;5.97;2.55;;;;;;;19.41;72.03;101011.63;5070443;28;20052;-68
2022/09/07 07:17:55;;;;;;;8.65;3.50;;;;;;;19.54;71.96;101042.31;5070638;28;20028;-68
2022/09/07 07:20:21;;;;;;;8.82;3.38;;;;;;;19.86;71.07;101044.34;5070789;28;20035;-74
2022/09/07 07:22:53;;;;;;;6.65;3.30;;;;;;;20.11;69.72;101052.41;5070747;28;20029;-71
2022/09/07 07:25:19;;;;;;;5.45;3.13;;;;;;;20.29;68.78;101050.78;5082874;28;20024;-70
2022/09/07 07:27:45;;;;;;;7.30;3.15;;;;;;;20.44;68.38;101050.84;5070715;28;20031;-69
2022/09/07 07:30:12;;;;;;;5.25;2.63;;;;;;;20.53;68.71;101057.88;5070438;28;20024;-71
2022/09/07 07:32:38;;;;;;;8.88;2.78;;;;;;;20.71;67.19;101049.28;5070431;28;20028;-69
2022/09/07 07:35:05;;;;;;;5.10;2.95;;;;;;;20.67;66.98;101018.59;5070011;28;20461;-70
2022/09/07 07:37:31;;;;;;;5.72;2.92;;;;;;;20.91;66.59;101058.94;5070062;28;20029;-69
2022/09/07 07:39:56;;;;;;;6.18;2.70;;;;;;;20.71;67.38;101041.41;5069634;28;20092;-69
2022/09/07 07:42:22;;;;;;;10.65;3.53;;;;;;;20.56;66.83;101055.28;5070257;28;20111;-68
2022/09/07 07:44:48;;;;;;;10.73;3.60;;;;;;;20.64;65.70;101047.47;5070298;28;20032;-71
2022/09/07 07:47:14;;;;;;;10.45;3.22;;;;;;;20.95;67.39;101061.59;5070397;28;20031;-73
2022/09/07 07:49:39;;;;;;;14.70;4.63;;;;;;;21.14;64.95;101059.03;5069982;28;20052;-69
2022/09/07 07:52:05;;;;;;;11.73;4.30;;;;;;;21.40;64.55;101051.22;5069604;28;20096;-71
2022/09/07 07:54:37;;;;;;;8.88;3.38;;;;;;;21.52;64.45;101052.09;5069812;28;20021;-70
2022/09/07 07:57:04;;;;;;;5.63;2.60;;;;;;;21.42;61.00;101053.84;5070152;28;20021;-71
2022/09/07 07:59:30;;;;;;;4.13;1.95;;;;;;;21.35;60.02;101045.06;5070052;28;20085;-71
2022/09/07 08:01:55;;;;;;;6.93;3.22;;;;;;;21.49;61.04;101038.06;5034247;28;20036;-71
2022/09/07 08:04:21;;;;;;;6.40;2.67;;;;;;;21.80;59.66;101042.50;5069995;28;20031;-68
2022/09/07 08:06:47;;;;;;;9.82;3.90;;;;;;;21.90;58.34;101038.13;5069658;28;20057;-74
2022/09/07 08:09:13;;;;;;;7.70;2.50;;;;;;;21.95;58.06;101025.84;5069717;28;20103;-71
2022/09/07 08:11:39;;;;;;;6.18;3.03;;;;;;;22.01;57.85;101033.72;5071726;28;20069;-70
2022/09/07 08:14:05;;;;;;;8.02;3.33;;;;;;;21.94;57.68;101039.88;5034492;28;20048;-68
2022/09/07 08:16:32;;;;;;;6.78;2.95;;;;;;;21.98;57.33;100996.91;5064626;28;20032;-69
2022/09/07 08:19:00;;;;;;;6.10;2.90;;;;;;;22.41;56.36;101041.56;5050025;28;20526;-68
2022/09/07 08:21:25;;;;;;;6.70;2.55;;;;;;;22.51;56.01;101028.38;5049982;28;20145;-70
2022/09/07 08:23:51;;;;;;;7.20;2.60;;;;;;;22.51;56.59;101036.28;5049862;28;20021;-69
2022/09/07 08:26:16;;;;;;;6.75;3.08;;;;;;;22.50;56.05;101031.91;5050345;28;20067;-72
2022/09/07 08:28:44;;;;;;;10.23;3.85;;;;;;;22.59;55.89;101027.47;5046888;28;20037;-70
2022/09/07 08:31:16;;;;;;;9.40;3.70;;;;;;;22.77;57.87;101015.97;5049973;28;20033;-71
2022/09/07 08:33:42;;;;;;;7.40;2.83;;;;;;;22.84;55.78;101018.59;5049911;28;20032;-71
2022/09/07 08:36:11;;;;;;;13.70;3.75;;;;;;;23.00;54.94;101012.34;5049917;28;20033;-69
2022/09/07 08:38:37;;;;;;;11.10;3.97;;;;;;;23.08;57.47;101013.19;5049746;28;20033;-73
2022/09/07 08:41:43;;;;;;;16.55;3.63;;;;;;;22.90;55.85;100955.38;5050027;28;20065;-70
2022/09/07 08:44:17;;;;;;;11.43;3.72;;;;;;;23.45;52.70;101011.22;5007902;28;20484;-70
2022/09/07 08:46:54;;;;;;;9.60;3.05;;;;;;;23.29;52.62;101005.19;5007753;28;20104;-73
2022/09/07 08:49:43;;;;;;;7.85;2.90;;;;;;;23.38;53.64;100999.84;5007734;28;20157;-70
2022/09/07 08:52:40;;;;;;;7.85;2.70;;;;;;;23.34;52.41;100993.72;5008041;28;20471;-70
2022/09/07 08:55:36;;;;;;;8.35;2.70;;;;;;;23.56;51.39;100985.63;5007646;28;20030;-72
2022/09/07 08:58:01;;;;;;;10.15;3.20;;;;;;;23.38;51.24;100942.75;5007787;28;20042;-73
2022/09/07 09:00:28;;;;;;;10.85;2.83;;;;;;;23.80;52.21;100978.41;5007833;28;20041;-74
2022/09/07 09:02:57;;;;;;;5.90;2.83;;;;;;;24.05;49.07;100981.69;5008634;28;20067;-70
2022/09/07 09:05:48;;;;;;;4.25;2.47;;;;;;;24.12;48.88;100982.50;5011424;28;20558;-70
2022/09/07 09:08:35;;;;;;;5.72;3.00;;;;;;;24.18;49.34;100969.25;5011030;28;20119;-72
2022/09/07 09:11:07;;;;;;;5.20;3.00;;;;;;;24.29;48.01;100962.06;5011363;28;20037;-74
2022/09/07 09:14:03;;;;;;;7.68;3.10;;;;;;;24.31;47.61;100952.38;5011015;28;20042;-72
2022/09/07 09:16:37;;;;;;;5.80;2.80;;;;;;;24.50;47.28;100967.94;5011223;28;20054;-75
2022/09/07 09:19:34;;;;;;;9.43;2.95;;;;;;;24.41;51.47;100961.03;5010335;28;20072;-71
2022/09/07 09:22:16;;;;;;;7.20;2.80;;;;;;;24.62;47.21;100954.59;4998946;28;20045;-72
2022/09/07 09:24:46;;;;;;;7.13;2.80;;;;;;;24.67;46.56;100952.81;5002766;28;20161;-71
2022/09/07 09:27:13;;;;;;;8.43;2.85;;;;;;;24.51;46.50;100946.84;5002486;28;20030;-71
2022/09/07 09:29:38;;;;;;;8.90;3.13;;;;;;;24.49;46.92;100948.63;5000625;28;20488;-73
2022/09/07 09:32:30;;;;;;;5.68;2.83;;;;;;;24.77;44.87;100937.69;4985289;28;20037;-73
2022/09/07 09:35:27;;;;;;;6.60;2.70;;;;;;;24.89;44.83;100936.66;5006393;28;20040;-72
2022/09/07 09:37:52;;;;;;;6.53;2.85;;;;;;;25.09;44.09;100935.47;5004042;28;20045;-73
2022/09/07 09:40:28;;;;;;;9.30;3.63;;;;;;;25.20;44.15;100929.09;5001682;28;20129;-71
2022/09/07 09:43:06;;;;;;;17.17;4.78;;;;;;;25.39;45.81;100934.13;4999812;28;20504;-76
2022/09/07 09:45:43;;;;;;;12.05;4.40;;;;;;;25.28;43.55;100931.63;5000524;28;20038;-71
2022/09/07 09:48:14;;;;;;;9.57;3.80;;;;;;;25.17;44.11;100912.44;5001877;28;20085;-75
2022/09/07 09:50:47;;;;;;;11.18;4.10;;;;;;;24.89;45.60;100886.47;4999220;28;20028;-72
2022/09/07 09:53:34;;;;;;;12.60;4.35;;;;;;;25.22;44.79;100889.44;4999926;28;20081;-72
2022/09/07 09:56:02;;;;;;;8.70;3.53;;;;;;;25.65;43.77;100920.44;5006760;28;20149;-76
2022/09/07 09:58:44;;;;;;;10.32;3.88;;;;;;;25.81;42.80;100909.56;5022858;28;20040;-71
2022/09/07 10:01:45;;;;;;;16.73;4.22;;;;;;;26.06;41.42;100912.63;5055073;28;20086;-70
2022/09/07 10:04:29;;;;;;;11.93;4.25;;;;;;;26.18;44.13;100906.19;5011568;28;20041;-73
2022/09/07 10:06:57;;;;;;;8.38;3.47;;;;;;;25.68;43.81;100872.78;5029605;28;20034;-72
2022/09/07 10:09:34;;;;;;;6.55;3.40;;;;;;;26.00;44.96;100899.50;5029808;28;20619;-73
2022/09/07 10:12:01;;;;;;;9.57;3.40;;;;;;;26.00;43.88;100902.13;5029134;28;20048;-71
2022/09/07 10:14:33;;;;;;;5.68;3.10;;;;;;;26.22;41.98;100899.97;5027004;28;20582;-70
2022/09/07 10:17:00;;;;;;;7.95;3.35;;;;;;;26.15;40.81;100880.66;5009899;28;20042;-68
2022/09/07 10:19:40;;;;;;;8.15;3.10;;;;;;;26.39;39.90;100880.19;5010105;28;20048;-72
2022/09/07 10:22:30;;;;;;;10.48;3.20;;;;;;;26.22;41.04;100893.78;5013665;28;20036;-69
2022/09/07 10:24:56;;;;;;;7.75;3.20;;;;;;;26.16;43.11;100855.09;5023734;28;20038;-72
2022/09/07 10:27:32;;;;;;;12.48;3.22;;;;;;;26.54;42.64;100882.47;5029441;28;20045;-75
2022/09/07 10:29:59;;;;;;;8.20;3.22;;;;;;;26.75;40.25;100883.78;4995883;28;20123;-71
2022/09/07 10:32:33;;;;;;;8.60;3.35;;;;;;;27.05;40.31;100883.06;5017059;28;20046;-68
2022/09/07 10:35:21;;;;;;;8.52;3.20;;;;;;;27.27;41.10;100880.75;5021288;28;20025;-71
2022/09/07 10:38:06;;;;;;;9.85;3.35;;;;;;;27.47;40.92;100882.03;5030374;28;20032;-70
2022/09/07 10:40:38;;;;;;;6.38;3.15;;;;;;;27.51;35.80;100873.94;5061285;28;20061;-72
2022/09/07 10:43:16;;;;;;;7.97;3.03;;;;;;;27.59;36.93;100865.75;5060178;28;20029;-68
2022/09/07 10:46:05;;;;;;;7.68;2.85;;;;;;;27.83;37.01;100864.22;5058209;28;20032;-70
2022/09/07 10:48:30;;;;;;;7.57;2.90;;;;;;;27.89;36.87;100866.69;5057362;28;20168;-70
2022/09/07 10:50:59;;;;;;;9.15;3.22;;;;;;;27.63;36.92;100850.63;5057114;28;20142;-70
2022/09/07 10:53:32;;;;;;;7.15;3.00;;;;;;;27.53;36.46;100861.53;5057873;28;20027;-72
2022/09/07 10:56:14;;;;;;;6.07;2.83;;;;;;;27.71;35.56;100856.59;5049470;28;20032;-70
2022/09/07 10:58:48;;;;;;;5.32;2.78;;;;;;;27.35;36.32;100856.69;5054797;28;20129;-73
2022/09/07 11:01:30;;;;;;;9.80;3.50;;;;;;;27.25;36.23;100851.63;5058120;28;20079;-72
2022/09/07 11:04:07;;;;;;;7.45;2.80;;;;;;;27.58;36.06;100846.34;5051181;28;20033;-72
2022/09/07 11:06:42;;;;;;;8.60;3.05;;;;;;;27.94;36.31;100850.66;5051338;28;20032;-70
2022/09/07 11:09:39;;;;;;;7.25;3.03;;;;;;;28.09;37.95;100839.59;4997738;28;20498;-72
2022/09/07 11:12:29;;;;;;;6.70;3.00;;;;;;;28.13;39.07;100808.53;5022069;28;20053;-73
2022/09/07 11:15:16;;;;;;;6.10;3.22;;;;;;;28.44;37.23;100834.13;5016101;28;20037;-73
2022/09/07 11:17:48;;;;;;;11.65;3.50;;;;;;;28.44;34.85;100825.25;5028449;28;20068;-72
2022/09/07 11:20:39;;;;;;;9.52;3.65;;;;;;;28.60;36.06;100823.88;5027989;28;20108;-74
2022/09/07 11:23:22;;;;;;;7.82;3.60;;;;;;;28.67;34.03;100825.41;5028053;28;20044;-71
2022/09/07 11:26:32;;;;;;;12.25;3.55;;;;;;;28.28;33.93;100817.78;5028039;28;20427;-73
2022/09/07 11:29:05;;;;;;;6.63;3.47;;;;;;;28.47;37.99;100819.88;4969180;28;20050;-72
2022/09/07 11:31:37;;;;;;;7.25;3.75;;;;;;;28.71;33.63;100807.59;4969529;28;20035;-76
2022/09/07 11:34:30;;;;;;;9.02;3.60;;;;;;;28.95;32.46;100807.66;4969356;28;20039;-74
2022/09/07 11:37:10;;;;;;;8.85;3.42;;;;;;;29.00;35.58;100800.44;4969345;28;20034;-70
2022/09/07 11:39:43;;;;;;;8.48;3.30;;;;;;;28.82;31.72;100796.59;4969227;28;20436;-74
2022/09/07 11:42:29;;;;;;;7.45;3.72;;;;;;;28.94;31.46;100798.00;4969357;28;20081;-71
2022/09/07 11:45:01;;;;;;;15.02;3.35;;;;;;;28.96;31.83;100782.84;4974355;28;20022;-72
2022/09/07 11:47:42;;;;;;;10.32;3.40;;;;;;;29.20;31.31;100787.28;4979249;28;20037;-73